createdAt,value
2018-11-21T00:00:03.036Z,74.44
2018-11-21T00:02:30.401Z,74.45
2018-11-21T00:04:57.774Z,74.25
2018-11-21T00:07:26.101Z,74.12
2018-11-21T00:10:12.418Z,74.10
2018-11-21T00:12:40.403Z,74.16
2018-11-21T00:15:08.685Z,74.35
2018-11-21T00:17:56.245Z,74.48
2018-11-21T00:20:23.625Z,74.57
2018-11-21T00:22:51.186Z,74.60
2018-11-21T00:25:37.537Z,74.57
2018-11-21T00:28:04.940Z,74.58
2018-11-21T00:30:51.294Z,74.58
2018-11-21T00:33:18.785Z,74.61
2018-11-21T00:35:46.602Z,74.55
2018-11-21T00:38:32.844Z,74.56
2018-11-21T00:41:00.813Z,74.60
2018-11-21T00:43:28.189Z,74.55
2018-11-21T00:45:55.547Z,74.52
2018-11-21T00:48:41.896Z,74.50
2018-11-21T00:51:09.565Z,74.49
2018-11-21T00:53:39.075Z,74.46
2018-11-21T00:56:06.469Z,74.44
2018-11-21T00:58:52.748Z,74.50
2018-11-21T01:01:20.601Z,74.53
2018-11-21T01:03:47.942Z,74.62
2018-11-21T01:06:34.232Z,74.59
2018-11-21T01:09:01.600Z,74.49
2018-11-21T01:11:29.027Z,74.33
2018-11-21T01:13:56.392Z,74.17
2018-11-21T01:16:42.749Z,74.06
2018-11-21T01:19:10.101Z,74.05
2018-11-21T01:21:37.610Z,74.07
2018-11-21T01:24:23.951Z,74.10
2018-11-21T01:26:51.450Z,74.18
2018-11-21T01:29:18.956Z,74.35
2018-11-21T01:32:05.330Z,74.51
2018-11-21T01:34:33.263Z,74.63
2018-11-21T01:37:00.634Z,74.76
2018-11-21T01:39:28.035Z,74.83
2018-11-21T01:42:14.393Z,74.93
2018-11-21T01:44:41.852Z,74.93
2018-11-21T01:47:09.276Z,74.90
2018-11-21T01:49:55.551Z,74.90
2018-11-21T01:52:22.924Z,74.98
2018-11-21T01:54:50.423Z,74.96
2018-11-21T01:57:36.643Z,74.91
2018-11-21T02:00:04.475Z,74.87
2018-11-21T02:02:31.888Z,74.79
2018-11-21T02:04:59.348Z,74.80
2018-11-21T02:07:27.235Z,74.86
2018-11-21T02:09:54.557Z,74.93
2018-11-21T02:12:22.069Z,74.96
2018-11-21T02:14:49.403Z,74.97
2018-11-21T02:17:35.727Z,74.99
2018-11-21T02:20:03.168Z,75.06
2018-11-21T02:22:30.605Z,75.14
2018-11-21T02:25:16.976Z,75.24
2018-11-21T02:27:44.342Z,75.33
2018-11-21T02:30:11.804Z,75.44
2018-11-21T02:32:39.275Z,75.40
2018-11-21T02:35:25.528Z,75.34
2018-11-21T02:37:53.319Z,75.27
2018-11-21T02:40:20.692Z,75.15
2018-11-21T02:43:07.020Z,75.04
2018-11-21T02:45:34.471Z,74.82
2018-11-21T02:48:01.971Z,74.58
2018-11-21T02:50:48.577Z,74.46
2018-11-21T02:53:16.062Z,74.46
2018-11-21T02:55:43.467Z,74.50
2018-11-21T02:58:29.793Z,74.62
2018-11-21T03:00:57.122Z,74.67
2018-11-21T03:03:24.563Z,74.75
2018-11-21T03:05:51.981Z,74.78
2018-11-21T03:08:38.245Z,74.82
2018-11-21T03:11:05.687Z,74.75
2018-11-21T03:13:33.056Z,74.59
2018-11-21T03:16:19.455Z,74.55
2018-11-21T03:18:47.124Z,74.60
2018-11-21T03:21:14.614Z,74.74
2018-11-21T03:24:00.846Z,74.94
2018-11-21T03:26:28.311Z,75.11
2018-11-21T03:28:55.653Z,75.30
2018-11-21T03:31:41.981Z,75.48
2018-11-21T03:34:09.407Z,75.63
2018-11-21T03:39:27.151Z,75.71
2018-11-21T03:41:54.574Z,75.76
2018-11-21T03:44:21.929Z,75.82
2018-11-21T03:47:08.284Z,75.88
2018-11-21T03:49:35.656Z,75.97
2018-11-21T03:52:03.193Z,76.05
2018-11-21T03:57:16.939Z,76.22
2018-11-21T03:59:44.300Z,76.28
2018-11-21T04:02:11.658Z,76.38
2018-11-21T04:04:58.023Z,76.38
2018-11-21T04:07:25.346Z,76.37
2018-11-21T04:09:53.238Z,76.38
2018-11-21T04:12:39.569Z,76.43
2018-11-21T04:15:06.896Z,76.50
2018-11-21T04:17:34.240Z,76.52
2018-11-21T04:23:12.161Z,76.64
2018-11-21T04:28:44.721Z,76.74
2018-11-21T04:31:12.433Z,76.79
2018-11-21T04:33:39.907Z,76.82
2018-11-21T04:39:02.651Z,76.87
2018-11-21T04:41:30.015Z,76.88
2018-11-21T04:43:57.850Z,76.91
2018-11-21T04:46:44.168Z,76.91
2018-11-21T04:49:11.529Z,76.89
2018-11-21T04:55:00.132Z,76.93
2018-11-21T04:57:27.480Z,76.90
2018-11-21T05:00:13.801Z,76.88
2018-11-21T05:02:41.139Z,76.91
2018-11-21T05:05:27.463Z,76.93
2018-11-21T05:07:54.908Z,76.84
2018-11-21T05:10:41.170Z,76.74
2018-11-21T05:13:08.582Z,76.67
2018-11-21T05:15:54.854Z,76.67
2018-11-21T05:18:22.303Z,76.65
2018-11-21T05:20:49.825Z,76.73
2018-11-21T05:23:38.059Z,76.78
2018-11-21T05:26:03.582Z,76.83
2018-11-21T05:28:30.932Z,76.83
2018-11-21T05:31:17.247Z,76.75
2018-11-21T05:33:44.662Z,76.65
2018-11-21T05:36:31.006Z,76.63
2018-11-21T05:38:58.413Z,76.67
2018-11-21T05:41:44.748Z,76.66
2018-11-21T05:44:31.419Z,76.67
2018-11-21T05:47:17.355Z,76.68
2018-11-21T05:49:44.758Z,76.70
2018-11-21T05:52:31.064Z,76.70
2018-11-21T05:54:58.401Z,76.75
2018-11-21T05:57:25.807Z,76.80
2018-11-21T06:00:12.145Z,76.84
2018-11-21T06:02:39.944Z,76.87
2018-11-21T06:05:07.362Z,76.90
2018-11-21T06:07:53.619Z,76.96
2018-11-21T06:10:21.067Z,76.94
2018-11-21T06:12:48.403Z,76.93
2018-11-21T06:15:36.870Z,76.98
2018-11-21T06:18:04.238Z,77.01
2018-11-21T06:20:31.600Z,77.00
2018-11-21T06:23:17.914Z,77.05
2018-11-21T06:25:45.270Z,77.07
2018-11-21T06:28:12.678Z,77.09
2018-11-21T06:33:31.973Z,77.10
2018-11-21T06:36:18.296Z,77.11
2018-11-21T06:38:45.628Z,77.09
2018-11-21T06:41:31.946Z,77.07
2018-11-21T06:43:59.358Z,77.06
2018-11-21T06:46:45.683Z,77.03
2018-11-21T06:49:13.369Z,76.94
2018-11-21T06:51:59.678Z,76.90
2018-11-21T06:54:46.013Z,76.85
2018-11-21T06:57:32.276Z,76.80
2018-11-21T07:00:00.065Z,76.73
2018-11-21T07:02:46.340Z,76.60
2018-11-21T07:05:13.750Z,76.49
2018-11-21T07:08:00.385Z,76.39
2018-11-21T07:10:27.809Z,76.19
2018-11-21T07:13:14.068Z,76.04
2018-11-21T07:15:41.505Z,76.02
2018-11-21T07:20:57.833Z,75.97
2018-11-21T07:26:11.707Z,76.06
2018-11-21T07:28:39.121Z,76.11
2018-11-21T07:31:06.496Z,76.14
2018-11-21T07:33:52.836Z,76.14
2018-11-21T07:36:20.173Z,76.13
2018-11-21T07:38:47.512Z,76.00
2018-11-21T07:41:33.836Z,75.87
2018-11-21T07:44:01.241Z,75.77
2018-11-21T07:46:28.628Z,75.69
2018-11-21T07:49:14.946Z,75.60
2018-11-21T07:51:42.303Z,75.56
2018-11-21T07:54:11.314Z,75.52
2018-11-21T07:56:57.559Z,75.46
2018-11-21T07:59:24.976Z,75.36
2018-11-21T08:02:11.286Z,75.22
2018-11-21T08:04:57.559Z,75.11
2018-11-21T08:07:43.869Z,74.99
2018-11-21T08:10:20.413Z,74.91
2018-11-21T08:13:06.759Z,74.60
2018-11-21T08:15:53.090Z,74.24
2018-11-21T08:18:39.347Z,73.97
2018-11-21T08:21:25.676Z,73.85
2018-11-21T08:24:17.228Z,73.77
2018-11-21T08:27:01.260Z,73.48
2018-11-21T08:29:47.574Z,72.86
2018-11-21T08:32:14.975Z,72.10
2018-11-21T08:34:42.387Z,71.94
2018-11-21T08:37:28.704Z,72.12
2018-11-21T08:39:56.168Z,72.40
2018-11-21T08:42:25.653Z,72.57
2018-11-21T08:45:11.963Z,72.71
2018-11-21T08:47:39.328Z,72.80
2018-11-21T08:50:06.747Z,72.86
2018-11-21T08:52:52.998Z,72.91
2018-11-21T08:55:20.418Z,72.90
2018-11-21T08:57:47.823Z,72.84
2018-11-21T09:00:34.136Z,72.83
2018-11-21T09:03:01.544Z,72.79
2018-11-21T09:05:28.884Z,72.76
2018-11-21T09:08:15.203Z,72.74
2018-11-21T09:10:42.601Z,72.65
2018-11-21T09:13:09.941Z,72.53
2018-11-21T09:15:56.669Z,72.46
2018-11-21T09:18:24.188Z,72.42
2018-11-21T09:20:51.579Z,72.33
2018-11-21T09:23:18.988Z,72.21
2018-11-21T09:25:46.409Z,72.13
2018-11-21T09:28:32.659Z,72.03
2018-11-21T09:31:07.283Z,71.85
2018-11-21T09:33:44.066Z,71.61
2018-11-21T09:36:11.475Z,71.39
2018-11-21T09:38:41.099Z,71.13
2018-11-21T09:41:27.413Z,70.90
2018-11-21T09:43:54.867Z,70.62
2018-11-21T09:46:22.295Z,70.23
2018-11-21T09:49:08.920Z,69.32
2018-11-21T09:54:23.822Z,65.13
2018-11-21T09:56:53.464Z,62.88
2018-11-21T09:59:21.812Z,61.46
2018-11-21T10:04:54.393Z,59.14
2018-11-21T10:07:40.737Z,58.13
2018-11-21T10:10:08.110Z,57.60
2018-11-21T10:12:54.449Z,56.90
2018-11-21T10:15:21.863Z,56.69
2018-11-21T10:18:08.193Z,56.63
2018-11-21T10:20:35.535Z,56.76
2018-11-21T10:23:21.857Z,56.34
2018-11-21T10:25:49.293Z,56.01
2018-11-21T10:28:35.941Z,55.20
2018-11-21T10:31:03.388Z,54.72
2018-11-21T10:33:49.762Z,54.48
2018-11-21T10:36:17.121Z,54.03
2018-11-21T10:39:03.431Z,54.17
2018-11-21T10:41:30.849Z,54.04
2018-11-21T10:44:17.115Z,53.82
2018-11-21T10:46:45.544Z,53.53
2018-11-21T10:49:31.811Z,53.68
2018-11-21T10:51:59.231Z,53.83
2018-11-21T10:54:47.716Z,54.34
2018-11-21T10:57:15.151Z,54.86
2018-11-21T10:59:47.996Z,54.53
2018-11-21T11:02:29.594Z,54.03
2018-11-21T11:05:15.857Z,53.65
2018-11-21T11:08:09.538Z,53.43
2018-11-21T11:13:58.407Z,54.38
2018-11-21T11:16:50.553Z,53.98
2018-11-21T11:19:39.798Z,53.95
2018-11-21T11:22:26.060Z,54.83
2018-11-21T11:25:12.396Z,55.63
2018-11-21T11:27:57.910Z,56.47
2018-11-21T11:30:50.237Z,57.12
2018-11-21T11:33:36.594Z,57.40
2018-11-21T11:36:21.602Z,57.60
2018-11-21T11:39:06.957Z,57.91
2018-11-21T11:41:51.985Z,58.18
2018-11-21T11:44:37.300Z,57.99
2018-11-21T11:47:15.679Z,57.30
2018-11-21T11:50:08.319Z,57.48
2018-11-21T11:52:52.968Z,58.10
2018-11-21T11:55:39.340Z,58.97
2018-11-21T11:58:15.376Z,59.64
2018-11-21T12:01:07.635Z,60.41
2018-11-21T12:03:49.786Z,60.89
2018-11-21T12:06:39.311Z,61.24
2018-11-21T12:09:32.740Z,61.27
2018-11-21T12:12:40.025Z,61.02
2018-11-21T12:15:20.976Z,61.11
2018-11-21T12:21:11.010Z,62.08
2018-11-21T12:23:56.523Z,62.57
2018-11-21T12:26:39.517Z,63.16
2018-11-21T12:32:05.833Z,63.68
2018-11-21T12:34:50.923Z,63.72
2018-11-21T12:37:37.264Z,63.76
2018-11-21T12:40:23.583Z,64.09
2018-11-21T12:43:13.220Z,64.49
2018-11-21T12:45:56.183Z,64.70
2018-11-21T12:48:42.533Z,64.56
2018-11-21T12:51:28.813Z,64.35
2018-11-21T12:54:15.157Z,64.33
2018-11-21T12:57:01.436Z,64.15
2018-11-21T12:59:51.410Z,64.01
2018-11-21T13:02:36.408Z,64.04
2018-11-21T13:05:22.724Z,64.13
2018-11-21T13:08:09.009Z,64.19
2018-11-21T13:10:55.358Z,64.29
2018-11-21T13:13:41.680Z,64.34
2018-11-21T13:16:28.058Z,64.41
2018-11-21T13:19:14.368Z,64.52
2018-11-21T13:21:56.401Z,64.58
2018-11-21T13:24:42.659Z,64.54
2018-11-21T13:27:28.980Z,64.42
2018-11-21T13:30:15.320Z,64.29
2018-11-21T13:33:01.647Z,64.22
2018-11-21T13:35:47.845Z,64.19
2018-11-21T13:38:34.306Z,64.21
2018-11-21T13:41:20.633Z,64.22
2018-11-21T13:44:06.958Z,64.22
2018-11-21T13:46:53.215Z,64.26
2018-11-21T13:49:39.539Z,64.51
2018-11-21T13:52:25.800Z,64.82
2018-11-21T13:55:12.145Z,64.87
2018-11-21T13:57:58.403Z,65.00
2018-11-21T14:00:25.754Z,65.29
2018-11-21T14:03:12.147Z,65.64
2018-11-21T14:05:39.497Z,65.91
2018-11-21T14:08:25.833Z,66.09
2018-11-21T14:11:12.159Z,66.18
2018-11-21T14:14:01.430Z,66.28
2018-11-21T14:16:25.856Z,66.44
2018-11-21T14:19:13.430Z,66.60
2018-11-21T14:21:39.614Z,66.81
2018-11-21T14:26:59.769Z,67.39
2018-11-21T14:32:32.331Z,67.89
2018-11-21T14:35:01.476Z,68.08
2018-11-21T14:37:46.023Z,68.27
2018-11-21T14:40:14.570Z,68.39
2018-11-21T14:43:00.824Z,68.55
2018-11-21T14:45:28.308Z,68.62
2018-11-21T14:48:14.570Z,68.72
2018-11-21T14:50:42.109Z,68.81
2018-11-21T14:53:09.456Z,68.90
2018-11-21T14:55:58.219Z,68.98
2018-11-21T14:58:25.969Z,69.12
2018-11-21T15:00:53.339Z,69.20
2018-11-21T15:03:39.685Z,69.28
2018-11-21T15:06:07.033Z,69.37
2018-11-21T15:08:34.454Z,69.43
2018-11-21T15:11:01.870Z,69.55
2018-11-21T15:13:29.283Z,69.66
2018-11-21T15:16:15.619Z,69.69
2018-11-21T15:18:47.826Z,69.73
2018-11-21T15:24:20.382Z,69.86
2018-11-21T15:26:47.728Z,69.93
2018-11-21T15:29:18.575Z,70.02
2018-11-21T15:31:45.925Z,70.12
2018-11-21T15:34:13.748Z,70.20
2018-11-21T15:36:41.472Z,70.26
2018-11-21T15:39:09.327Z,70.28
2018-11-21T15:44:15.284Z,70.35
2018-11-21T15:46:45.828Z,70.38
2018-11-21T15:49:11.724Z,70.42
2018-11-21T15:51:40.292Z,70.50
2018-11-21T15:54:08.109Z,70.58
2018-11-21T15:56:35.559Z,70.64
2018-11-21T15:59:03.332Z,70.72
2018-11-21T16:01:30.812Z,70.75
2018-11-21T16:04:01.228Z,70.82
2018-11-21T16:06:29.075Z,70.90
2018-11-21T16:08:56.435Z,70.96
2018-11-21T16:11:23.802Z,71.06
2018-11-21T16:13:53.972Z,71.10
2018-11-21T16:16:23.330Z,71.12
2018-11-21T16:18:48.769Z,71.18
2018-11-21T16:21:16.621Z,71.19
2018-11-21T16:23:44.218Z,71.19
2018-11-21T16:26:13.768Z,71.20
2018-11-21T16:28:41.460Z,71.24
2018-11-21T16:31:08.998Z,71.33
2018-11-21T16:33:36.429Z,71.38
2018-11-21T16:36:04.205Z,71.43
2018-11-21T16:38:31.706Z,71.57
2018-11-21T16:40:59.058Z,71.71
2018-11-21T16:43:26.492Z,71.81
2018-11-21T16:45:55.686Z,71.88
2018-11-21T16:48:23.390Z,71.90
2018-11-21T16:50:52.808Z,71.98
2018-11-21T16:53:20.227Z,72.05
2018-11-21T16:55:49.320Z,72.12
2018-11-21T16:58:15.453Z,72.12
2018-11-21T17:00:42.893Z,72.12
2018-11-21T17:03:17.185Z,72.09
2018-11-21T17:05:44.601Z,72.06
2018-11-21T17:08:12.025Z,72.06
2018-11-21T17:10:39.912Z,72.03
2018-11-21T17:13:07.251Z,71.99
2018-11-21T17:15:35.347Z,72.00
2018-11-21T17:18:03.153Z,72.00
2018-11-21T17:20:31.994Z,71.98
2018-11-21T17:23:00.254Z,71.90
2018-11-21T17:25:46.570Z,71.76
2018-11-21T17:28:16.836Z,71.62
2018-11-21T17:30:44.271Z,71.49
2018-11-21T17:33:12.206Z,71.38
2018-11-21T17:35:39.632Z,71.24
2018-11-21T17:38:06.971Z,71.11
2018-11-21T17:40:36.665Z,71.00
2018-11-21T17:43:04.034Z,70.90
2018-11-21T17:45:31.474Z,70.86
2018-11-21T17:47:59.231Z,70.82
2018-11-21T17:50:26.600Z,70.74
2018-11-21T17:52:55.836Z,70.61
2018-11-21T17:55:25.158Z,70.55
2018-11-21T17:58:11.437Z,70.50
2018-11-21T18:00:39.504Z,70.44
2018-11-21T18:03:08.277Z,70.42
2018-11-21T18:05:44.824Z,70.42
2018-11-21T18:08:12.590Z,70.42
2018-11-21T18:10:41.262Z,70.33
2018-11-21T18:13:08.665Z,70.22
2018-11-21T18:15:36.482Z,70.13
2018-11-21T18:18:03.905Z,70.04
2018-11-21T18:20:31.356Z,69.97
2018-11-21T18:22:59.033Z,69.95
2018-11-21T18:25:46.024Z,69.90
2018-11-21T18:28:13.802Z,69.87
2018-11-21T18:30:41.641Z,69.83
2018-11-21T18:33:09.043Z,69.82
2018-11-21T18:35:36.460Z,69.81
2018-11-21T18:38:04.279Z,69.84
2018-11-21T18:40:32.203Z,69.83
2018-11-21T18:42:59.620Z,69.81
2018-11-21T18:45:30.441Z,69.76
2018-11-21T18:53:05.763Z,69.68
2018-11-21T18:55:33.182Z,69.64
2018-11-21T18:58:00.552Z,69.62
2018-11-21T19:00:28.380Z,69.63
2018-11-21T19:02:55.722Z,69.67
2018-11-21T19:05:23.661Z,69.65
2018-11-21T19:07:51.298Z,69.68
2018-11-21T19:10:20.975Z,69.67
2018-11-21T19:12:48.391Z,69.72
2018-11-21T19:15:17.016Z,69.72
2018-11-21T19:17:44.441Z,69.74
2018-11-21T19:20:12.796Z,69.74
2018-11-21T19:23:03.266Z,69.72
2018-11-21T19:28:41.501Z,69.66
